KESN/ESN METAR and TAF weather

Enter ICAO airport designator
Station Type Date Time Source
KESN METAR 2019/10/23 03:39 UTC NOAA

KESN 230339Z AUTO 29005KT 10SM SCT006 BKN032 OVC039 17/16 A2989 RMK AO2 T01670161


Station Type Date Time Source
KESN Decoded METAR 2019/10/23 03:39 UTC NOAA

Easton / Newman Field, MD, United States (KESN) 38-48N 076-04W
Oct 22, 2019 - 11:39 PM EDT / 2019.10.23 0339 UTC
Wind: from the WNW (290 degrees) at 6 MPH (5 KT):0
Visibility: 10 mile(s):0
Sky conditions: overcast
Temperature: 62.1 F (16.7 C)
Dew Point: 61.0 F (16.1 C)
Relative Humidity: 96%
Pressure (altimeter): 29.89 in. Hg (1012 hPa)
ob: KESN 230339Z AUTO 29005KT 10SM SCT006 BKN032 OVC039 17/16 A2989 RMK AO2 T01670161
cycle: 3

Station Type Date Time Source
KESN TAF UTC NOAA

Error!

Example: see airport list